createdAt,value
2022-09-05T00:00:19.275Z,16.25
2022-09-05T00:01:43.211Z,16.28
2022-09-05T00:03:25.928Z,16.29
2022-09-05T00:04:38.302Z,16.32
2022-09-05T00:05:57.642Z,16.34
2022-09-05T00:07:37.407Z,16.36
2022-09-05T00:08:56.961Z,16.29
2022-09-05T00:10:20.709Z,16.29
2022-09-05T00:11:45.803Z,16.29
2022-09-05T00:12:50.713Z,16.31
2022-09-05T00:14:48.723Z,16.34
2022-09-05T00:16:31.515Z,16.40
2022-09-05T00:18:44.065Z,16.40
2022-09-05T00:24:17.136Z,16.42
2022-09-05T00:24:24.769Z,16.48
2022-09-05T00:24:28.563Z,16.47
2022-09-05T00:25:30.165Z,16.47
2022-09-05T00:27:02.967Z,16.48
2022-09-05T00:28:25.268Z,16.44
2022-09-05T00:30:30.709Z,16.46
2022-09-05T00:31:55.520Z,16.46
2022-09-05T00:33:16.894Z,16.42
2022-09-05T00:34:47.716Z,16.29
2022-09-05T00:36:02.573Z,16.15
2022-09-05T00:37:05.489Z,16.07
2022-09-05T00:38:40.031Z,16.09
2022-09-05T00:39:47.945Z,16.02
2022-09-05T00:41:07.114Z,16.00
2022-09-05T00:42:17.842Z,15.92
2022-09-05T00:43:24.758Z,15.81
2022-09-05T00:44:33.198Z,15.74
2022-09-05T00:45:43.558Z,15.61
2022-09-05T00:46:59.238Z,15.69
2022-09-05T00:48:17.370Z,15.71
2022-09-05T00:49:30.021Z,15.69
2022-09-05T00:50:58.677Z,15.64
2022-09-05T00:52:10.135Z,15.72
2022-09-05T00:53:19.752Z,15.79
2022-09-05T00:54:43.498Z,15.82
2022-09-05T00:56:04.249Z,15.79
2022-09-05T00:57:38.773Z,15.83
2022-09-05T00:58:58.994Z,15.77
2022-09-05T01:00:43.096Z,15.66
2022-09-05T01:01:58.304Z,15.72
2022-09-05T01:03:25.233Z,15.74
2022-09-05T01:04:57.774Z,15.73
2022-09-05T01:06:30.298Z,15.82
2022-09-05T01:07:50.828Z,15.85
2022-09-05T01:09:14.495Z,15.72
2022-09-05T01:10:39.162Z,15.66
2022-09-05T01:12:31.692Z,15.65
2022-09-05T01:13:57.925Z,15.59
2022-09-05T01:15:55.650Z,15.33
2022-09-05T01:17:17.467Z,15.37
2022-09-05T01:18:31.869Z,15.36
2022-09-05T01:19:55.642Z,15.34
2022-09-05T01:21:29.109Z,15.46
2022-09-05T01:23:08.471Z,15.56
2022-09-05T01:24:42.739Z,15.73
2022-09-05T01:26:18.790Z,15.74
2022-09-05T01:29:14.217Z,15.75
2022-09-05T01:30:13.287Z,15.82
2022-09-05T01:31:21.169Z,15.83
2022-09-05T01:32:53.015Z,15.80
2022-09-05T01:34:43.252Z,15.85
2022-09-05T01:36:05.221Z,15.88
2022-09-05T01:37:29.657Z,15.88
2022-09-05T01:39:58.084Z,15.66
2022-09-05T01:40:30.125Z,15.35
2022-09-05T01:41:39.305Z,15.31
2022-09-05T01:42:45.801Z,15.33
2022-09-05T01:44:12.213Z,15.13
2022-09-05T01:45:39.693Z,15.08
2022-09-05T01:46:45.881Z,15.03
2022-09-05T01:47:58.045Z,14.99
2022-09-05T01:49:08.817Z,15.09
2022-09-05T01:50:29.706Z,15.04
2022-09-05T01:51:40.621Z,14.92
2022-09-05T01:53:02.615Z,14.90
2022-09-05T01:54:33.789Z,14.91
2022-09-05T01:56:06.139Z,14.96
2022-09-05T01:57:32.813Z,14.99
2022-09-05T01:58:50.065Z,15.08
2022-09-05T01:59:57.169Z,15.10
2022-09-05T02:01:26.623Z,15.04
2022-09-05T02:03:06.859Z,14.94
2022-09-05T02:04:21.649Z,14.98
2022-09-05T02:05:48.900Z,14.90
2022-09-05T02:07:15.218Z,14.94
2022-09-05T02:08:46.613Z,14.99
2022-09-05T02:10:32.940Z,15.13
2022-09-05T02:12:00.592Z,15.22
2022-09-05T02:13:20.650Z,15.26
2022-09-05T02:14:48.701Z,15.24
2022-09-05T02:16:12.476Z,15.25
2022-09-05T02:17:31.918Z,15.29
2022-09-05T02:18:54.300Z,15.36
2022-09-05T02:20:14.500Z,15.39
2022-09-05T02:21:56.838Z,15.39
2022-09-05T02:23:37.608Z,15.45
2022-09-05T02:24:45.442Z,15.48
2022-09-05T02:26:29.933Z,15.45
2022-09-05T02:28:05.578Z,15.46
2022-09-05T02:29:29.730Z,15.53
2022-09-05T02:30:48.549Z,15.52
2022-09-05T02:32:18.332Z,15.50
2022-09-05T02:33:34.603Z,15.46
2022-09-05T02:34:54.217Z,15.46
2022-09-05T02:36:10.234Z,15.46
2022-09-05T02:40:31.194Z,15.47
2022-09-05T02:41:57.190Z,15.52
2022-09-05T02:45:13.249Z,15.36
2022-09-05T02:45:18.727Z,15.18
2022-09-05T02:45:21.698Z,15.38
2022-09-05T02:45:27.547Z,15.26
2022-09-05T02:46:58.725Z,15.28
2022-09-05T02:48:32.284Z,15.08
2022-09-05T02:52:30.654Z,14.95
2022-09-05T02:57:25.273Z,14.95
2022-09-05T02:57:29.018Z,15.03
2022-09-05T02:57:33.719Z,15.02
2022-09-05T02:57:39.466Z,14.96
2022-09-05T02:58:06.649Z,15.01
2022-09-05T02:59:12.921Z,14.93
2022-09-05T03:00:21.306Z,14.89
2022-09-05T03:01:40.507Z,14.88
2022-09-05T03:03:00.571Z,14.98
2022-09-05T03:04:20.875Z,15.08
2022-09-05T03:05:32.759Z,15.12
2022-09-05T03:07:01.420Z,15.10
2022-09-05T03:08:18.631Z,15.17
2022-09-05T03:09:34.560Z,15.14
2022-09-05T03:11:11.980Z,15.13
2022-09-05T03:12:45.595Z,15.19
2022-09-05T03:14:17.980Z,15.24
2022-09-05T03:16:04.876Z,15.28
2022-09-05T03:17:37.467Z,15.31
2022-09-05T03:18:48.545Z,15.33
2022-09-05T03:20:02.746Z,15.23
2022-09-05T03:21:12.075Z,15.31
2022-09-05T03:22:16.943Z,15.32
2022-09-05T03:24:00.318Z,15.36
2022-09-05T03:25:05.190Z,15.35
2022-09-05T03:26:34.930Z,15.25
2022-09-05T03:28:04.773Z,15.26
2022-09-05T03:29:25.532Z,15.16
2022-09-05T03:31:06.298Z,15.10
2022-09-05T03:32:08.540Z,15.17
2022-09-05T03:34:02.035Z,15.18
2022-09-05T03:35:54.168Z,15.21
2022-09-05T03:37:17.789Z,15.27
2022-09-05T03:38:40.273Z,15.34
2022-09-05T03:40:23.071Z,15.29
2022-09-05T03:41:45.356Z,15.25
2022-09-05T03:43:02.598Z,15.29
2022-09-05T03:44:27.830Z,15.24
2022-09-05T03:45:57.237Z,15.24
2022-09-05T03:47:36.871Z,15.19
2022-09-05T03:48:41.880Z,15.17
2022-09-05T03:52:21.350Z,15.26
2022-09-05T03:57:08.398Z,15.26
2022-09-05T03:57:15.203Z,15.35
2022-09-05T03:57:24.924Z,15.21
2022-09-05T03:57:42.207Z,15.25
2022-09-05T03:59:22.428Z,14.97
2022-09-05T04:00:34.658Z,14.88
2022-09-05T04:08:06.182Z,14.78
2022-09-05T04:08:13.520Z,14.76
2022-09-05T04:08:16.192Z,14.72
2022-09-05T04:08:26.395Z,14.75
2022-09-05T04:08:30.795Z,14.66
2022-09-05T04:10:04.722Z,14.74
2022-09-05T04:11:27.988Z,14.77
2022-09-05T04:12:49.741Z,14.79
2022-09-05T04:14:02.461Z,14.78
2022-09-05T04:15:32.736Z,14.70
2022-09-05T04:16:51.460Z,14.72
2022-09-05T04:18:03.879Z,14.72
2022-09-05T04:19:24.461Z,14.66
2022-09-05T04:20:47.789Z,14.71
2022-09-05T04:22:06.520Z,14.76
2022-09-05T04:23:15.839Z,14.83
2022-09-05T04:24:41.945Z,14.81
2022-09-05T04:26:11.660Z,14.89
2022-09-05T04:27:29.504Z,14.78
2022-09-05T04:28:53.549Z,14.67
2022-09-05T04:30:13.011Z,14.69
2022-09-05T04:31:34.359Z,14.61
2022-09-05T04:33:11.136Z,14.57
2022-09-05T04:34:28.204Z,14.58
2022-09-05T04:35:41.228Z,14.67
2022-09-05T04:36:45.243Z,14.63
2022-09-05T04:38:17.704Z,14.70
2022-09-05T04:39:19.868Z,14.57
2022-09-05T04:40:57.471Z,14.58
2022-09-05T04:42:14.283Z,14.55
2022-09-05T04:43:31.103Z,14.57
2022-09-05T04:44:55.636Z,14.49
2022-09-05T04:46:31.547Z,14.61
2022-09-05T04:47:46.820Z,14.74
2022-09-05T04:48:57.149Z,14.73
2022-09-05T04:50:08.993Z,14.69
2022-09-05T04:51:29.227Z,14.75
2022-09-05T04:52:47.929Z,14.78
2022-09-05T04:54:08.565Z,14.82
2022-09-05T04:55:16.359Z,14.75
2022-09-05T04:56:26.660Z,14.80
2022-09-05T04:57:49.643Z,14.85
2022-09-05T05:02:23.413Z,14.95
2022-09-05T05:06:00.331Z,15.23
2022-09-05T05:06:11.033Z,15.31
2022-09-05T05:06:11.537Z,15.18
2022-09-05T05:06:19.978Z,15.21
2022-09-05T05:07:24.835Z,15.37
2022-09-05T05:08:39.131Z,15.53
2022-09-05T05:10:12.053Z,15.80
2022-09-05T05:18:00.439Z,16.01
2022-09-05T05:18:01.692Z,16.22
2022-09-05T05:18:07.040Z,18.64
2022-09-05T05:18:13.566Z,17.08
2022-09-05T05:18:36.379Z,20.95
2022-09-05T05:20:02.164Z,23.46
2022-09-05T05:21:20.831Z,24.81
2022-09-05T05:22:23.225Z,25.47
2022-09-05T05:23:36.779Z,25.32
2022-09-05T05:24:48.722Z,23.92
2022-09-05T05:26:00.117Z,22.72
2022-09-05T05:27:11.536Z,21.86
2022-09-05T05:28:26.828Z,21.63
2022-09-05T05:29:56.141Z,21.29
2022-09-05T05:31:13.699Z,20.64
2022-09-05T05:32:43.522Z,19.87
2022-09-05T05:33:51.078Z,19.14
2022-09-05T05:35:03.536Z,19.11
2022-09-05T05:36:08.467Z,19.46
2022-09-05T05:37:32.025Z,20.09
2022-09-05T05:38:34.193Z,20.61
2022-09-05T05:39:45.733Z,20.57
2022-09-05T05:41:50.162Z,19.94
2022-09-05T05:43:25.783Z,19.54
2022-09-05T06:00:55.469Z,23.15
2022-09-05T06:02:30.891Z,23.35
2022-09-05T06:04:00.650Z,22.80
2022-09-05T06:05:56.763Z,25.71
2022-09-05T06:06:59.227Z,27.64
2022-09-05T06:11:18.100Z,28.77
2022-09-05T06:14:49.841Z,29.55
2022-09-05T06:14:59.827Z,29.08
2022-09-05T06:15:01.053Z,29.48
2022-09-05T06:15:12.287Z,28.34
2022-09-05T06:16:44.631Z,27.36
2022-09-05T06:18:15.711Z,27.55
2022-09-05T06:20:45.874Z,27.43
2022-09-05T06:22:07.537Z,27.59
2022-09-05T06:23:34.797Z,27.21
2022-09-05T06:25:16.327Z,27.14
2022-09-05T06:26:45.777Z,26.06
2022-09-05T06:28:19.484Z,24.09
2022-09-05T06:29:38.385Z,22.89
2022-09-05T06:30:50.816Z,21.80
2022-09-05T06:32:56.703Z,21.35
2022-09-05T06:34:33.496Z,20.92
2022-09-05T06:36:16.808Z,20.57
2022-09-05T06:37:37.906Z,20.38
2022-09-05T06:38:46.644Z,20.46
2022-09-05T06:39:49.262Z,20.44
2022-09-05T06:41:00.576Z,20.62
2022-09-05T06:42:30.579Z,20.81
2022-09-05T06:44:03.080Z,20.84
2022-09-05T06:45:29.136Z,20.99
2022-09-05T06:47:22.080Z,20.84
2022-09-05T06:48:27.811Z,20.88
2022-09-05T06:50:24.534Z,21.02
2022-09-05T06:51:45.003Z,21.18
2022-09-05T06:53:19.953Z,21.16
2022-09-05T06:55:00.323Z,21.47
2022-09-05T06:56:25.684Z,21.23
2022-09-05T06:57:36.309Z,21.26
2022-09-05T06:59:41.120Z,21.65
2022-09-05T07:00:49.113Z,21.21
2022-09-05T07:02:00.561Z,21.24
2022-09-05T07:03:22.886Z,21.08
2022-09-05T07:05:37.028Z,21.25
2022-09-05T07:07:01.090Z,21.70
2022-09-05T07:08:44.614Z,21.57
2022-09-05T07:10:16.928Z,21.54
2022-09-05T07:11:44.950Z,21.42
2022-09-05T07:12:52.927Z,21.52
2022-09-05T07:14:09.668Z,21.26
2022-09-05T07:15:32.176Z,21.57
2022-09-05T07:16:55.035Z,21.66
2022-09-05T07:18:10.240Z,21.73
2022-09-05T07:19:27.575Z,21.98
2022-09-05T07:21:16.815Z,22.11
2022-09-05T07:22:46.092Z,22.33
2022-09-05T07:24:11.153Z,22.37
2022-09-05T07:25:18.748Z,21.97
2022-09-05T07:26:37.997Z,21.69
2022-09-05T07:28:26.042Z,21.55
2022-09-05T07:29:22.792Z,21.10
2022-09-05T07:30:26.289Z,21.14
2022-09-05T07:31:37.832Z,21.19
2022-09-05T07:32:48.984Z,21.19
2022-09-05T07:34:05.532Z,21.31
2022-09-05T07:35:31.187Z,21.46
2022-09-05T07:36:48.144Z,21.42
2022-09-05T07:38:14.605Z,21.85
2022-09-05T07:39:28.636Z,21.99
2022-09-05T07:40:39.320Z,22.01
2022-09-05T07:41:51.098Z,22.11
2022-09-05T07:43:09.027Z,22.05
2022-09-05T07:44:23.680Z,21.98
2022-09-05T07:45:29.033Z,21.96
2022-09-05T07:46:35.841Z,22.09
2022-09-05T07:47:43.347Z,22.09
2022-09-05T07:48:59.619Z,22.23
2022-09-05T07:51:20.278Z,22.20
2022-09-05T07:56:47.304Z,22.30
2022-09-05T07:56:49.252Z,22.27
2022-09-05T07:56:55.404Z,22.32
2022-09-05T07:57:08.359Z,22.28
2022-09-05T07:57:43.728Z,22.32
2022-09-05T07:58:55.124Z,22.21
2022-09-05T08:00:24.677Z,22.12
2022-09-05T08:01:30.377Z,21.95
2022-09-05T08:02:51.469Z,21.98
2022-09-05T08:03:57.294Z,21.96
2022-09-05T08:05:06.332Z,21.96
2022-09-05T08:06:35.914Z,21.94
2022-09-05T08:07:51.895Z,22.00
2022-09-05T08:09:21.512Z,22.02
2022-09-05T08:10:54.977Z,21.90
2022-09-05T08:12:09.719Z,21.91
2022-09-05T08:13:23.375Z,22.02
2022-09-05T08:14:54.374Z,22.08
2022-09-05T08:16:10.176Z,22.25
2022-09-05T08:17:21.577Z,22.13
2022-09-05T08:19:10.699Z,22.26
2022-09-05T08:21:00.658Z,21.84
2022-09-05T08:22:06.919Z,22.31
2022-09-05T08:23:46.900Z,22.65
2022-09-05T08:24:59.615Z,22.82
2022-09-05T08:26:14.657Z,22.86
2022-09-05T08:27:42.718Z,22.90
2022-09-05T08:29:04.555Z,23.15
2022-09-05T08:30:26.375Z,23.29
2022-09-05T08:31:42.665Z,23.22
2022-09-05T08:32:49.404Z,23.30
2022-09-05T08:33:56.198Z,23.36
2022-09-05T08:35:24.436Z,23.41
2022-09-05T08:36:46.285Z,23.37
2022-09-05T08:37:51.517Z,23.43
2022-09-05T08:38:55.472Z,23.40
2022-09-05T08:40:10.665Z,23.42
2022-09-05T08:41:26.036Z,23.46
2022-09-05T08:45:56.529Z,23.71
2022-09-05T08:46:44.173Z,24.56
2022-09-05T08:46:49.269Z,24.39
2022-09-05T08:48:17.423Z,24.73
2022-09-05T08:49:41.404Z,24.58
2022-09-05T08:51:22.394Z,24.27
2022-09-05T08:52:42.916Z,24.34
2022-09-05T08:54:22.791Z,24.16
2022-09-05T08:55:39.738Z,24.23
2022-09-05T08:57:19.143Z,24.29
2022-09-05T08:58:47.972Z,24.18
2022-09-05T09:00:18.951Z,24.32
2022-09-05T09:01:31.683Z,24.22
2022-09-05T09:03:11.841Z,24.12
2022-09-05T09:04:29.792Z,23.67
2022-09-05T09:06:12.791Z,24.41
2022-09-05T09:07:51.423Z,24.98
2022-09-05T09:09:12.707Z,25.35
2022-09-05T09:10:26.852Z,25.74
2022-09-05T09:11:37.619Z,25.76
2022-09-05T09:12:58.125Z,26.01
2022-09-05T09:14:31.808Z,26.35
2022-09-05T09:15:52.960Z,26.34
2022-09-05T09:17:09.789Z,25.99
2022-09-05T09:18:15.770Z,26.12
2022-09-05T09:19:32.431Z,26.71
2022-09-05T09:20:45.716Z,26.92
2022-09-05T09:22:20.418Z,26.82
2022-09-05T09:23:32.677Z,27.16
2022-09-05T09:25:12.000Z,27.41
2022-09-05T09:26:16.877Z,26.62
2022-09-05T09:28:04.347Z,26.98
2022-09-05T09:29:10.772Z,27.15
2022-09-05T09:30:14.651Z,26.78
2022-09-05T09:31:25.931Z,27.08
2022-09-05T09:32:29.378Z,26.86
2022-09-05T09:33:46.153Z,26.44
2022-09-05T09:35:06.171Z,26.78
2022-09-05T09:36:39.479Z,26.60
2022-09-05T09:38:13.916Z,26.76
2022-09-05T09:39:38.204Z,26.89
2022-09-05T09:41:10.892Z,26.80
2022-09-05T09:42:21.102Z,27.02
2022-09-05T09:43:52.594Z,27.22
2022-09-05T09:45:22.390Z,27.69
2022-09-05T09:46:39.343Z,27.47
2022-09-05T09:48:03.573Z,26.70
2022-09-05T09:49:29.754Z,26.48
2022-09-05T09:50:45.059Z,25.61
2022-09-05T09:52:28.826Z,26.42
2022-09-05T09:53:57.835Z,26.11
2022-09-05T09:55:23.426Z,26.16
2022-09-05T09:56:48.005Z,26.34
2022-09-05T09:58:04.008Z,26.29
2022-09-05T09:59:53.998Z,25.99
2022-09-05T10:01:36.343Z,26.58
2022-09-05T10:07:26.915Z,26.91
2022-09-05T10:07:35.465Z,27.77
2022-09-05T10:10:37.742Z,27.93
2022-09-05T10:10:52.716Z,27.39
2022-09-05T10:10:54.226Z,28.06
2022-09-05T10:13:10.211Z,28.37
2022-09-05T10:14:30.735Z,28.77
2022-09-05T10:15:51.746Z,28.95
2022-09-05T10:17:09.648Z,28.92
2022-09-05T10:18:50.635Z,28.82
2022-09-05T10:20:20.152Z,28.69
2022-09-05T10:23:44.712Z,29.36
2022-09-05T10:25:19.249Z,29.17
2022-09-05T10:26:22.410Z,29.20
2022-09-05T10:27:44.610Z,29.04
2022-09-05T10:29:34.944Z,29.26
2022-09-05T10:33:57.010Z,28.95
2022-09-05T10:35:07.967Z,28.20
2022-09-05T10:35:14.103Z,28.71
2022-09-05T10:35:27.349Z,29.16
2022-09-05T10:36:33.557Z,29.07
2022-09-05T10:37:43.529Z,28.15
2022-09-05T10:38:50.768Z,28.81
2022-09-05T10:39:58.175Z,28.85
2022-09-05T10:41:21.764Z,29.22
2022-09-05T10:42:59.899Z,29.77
2022-09-05T10:44:05.234Z,29.57
2022-09-05T10:45:16.457Z,29.55
2022-09-05T10:46:51.097Z,29.01
2022-09-05T10:48:21.129Z,28.99
2022-09-05T10:49:34.571Z,28.94
2022-09-05T10:50:44.154Z,29.36
2022-09-05T10:51:51.924Z,29.85
2022-09-05T10:53:09.650Z,29.76
2022-09-05T10:54:36.568Z,29.66
2022-09-05T10:56:06.200Z,29.65
2022-09-05T10:57:35.497Z,29.62
2022-09-05T11:00:32.600Z,28.35
2022-09-05T11:02:21.037Z,28.47
2022-09-05T11:02:28.290Z,28.82
2022-09-05T11:03:55.791Z,29.55
2022-09-05T11:05:17.459Z,29.93
2022-09-05T11:06:34.119Z,29.99
2022-09-05T11:07:59.120Z,29.90
2022-09-05T11:09:26.302Z,30.14
2022-09-05T11:10:49.434Z,30.36
2022-09-05T11:12:11.578Z,30.31
2022-09-05T11:13:44.291Z,29.80
2022-09-05T11:14:51.357Z,29.37
2022-09-05T11:16:13.483Z,29.41
2022-09-05T11:17:42.938Z,29.74
2022-09-05T11:19:06.777Z,30.17
2022-09-05T11:20:34.858Z,30.16
2022-09-05T11:22:22.032Z,30.25
2022-09-05T11:23:40.178Z,30.04
2022-09-05T11:25:04.021Z,29.89
2022-09-05T11:26:18.109Z,29.96
2022-09-05T11:27:35.963Z,29.14
2022-09-05T11:28:57.607Z,29.42
2022-09-05T11:30:28.440Z,29.92
2022-09-05T11:32:00.546Z,29.87
2022-09-05T11:39:47.982Z,30.25
2022-09-05T11:39:50.487Z,30.36
2022-09-05T11:39:51.443Z,30.62
2022-09-05T11:40:06.360Z,30.47
2022-09-05T11:40:09.001Z,30.38
2022-09-05T11:41:40.891Z,30.49
2022-09-05T11:42:49.183Z,30.72
2022-09-05T11:44:26.685Z,30.82
2022-09-05T11:45:59.603Z,30.52
2022-09-05T11:47:30.184Z,29.71
2022-09-05T11:48:41.849Z,29.13
2022-09-05T11:50:25.114Z,29.92
2022-09-05T11:51:51.502Z,29.53
2022-09-05T11:53:14.967Z,29.24
2022-09-05T11:54:27.990Z,29.61
2022-09-05T11:56:07.676Z,30.04
2022-09-05T11:57:33.556Z,30.46
2022-09-05T11:59:13.979Z,30.35
2022-09-05T12:00:51.858Z,30.33
2022-09-05T12:02:41.203Z,30.52
2022-09-05T12:04:05.644Z,30.41
2022-09-05T12:05:49.561Z,30.52
2022-09-05T12:07:30.589Z,30.50
2022-09-05T12:08:54.926Z,30.59
2022-09-05T12:10:10.500Z,30.53
2022-09-05T12:11:53.925Z,30.72
2022-09-05T12:13:21.695Z,30.74
2022-09-05T12:14:54.857Z,30.95
2022-09-05T12:16:07.750Z,30.01
2022-09-05T12:17:35.482Z,30.08
2022-09-05T12:18:49.229Z,29.64
2022-09-05T12:20:22.003Z,29.63
2022-09-05T12:21:41.073Z,29.82
2022-09-05T12:22:54.485Z,28.94
2022-09-05T12:25:26.296Z,29.17
2022-09-05T12:27:40.932Z,29.63
2022-09-05T12:27:42.378Z,30.00
2022-09-05T12:29:32.841Z,30.26
2022-09-05T12:30:15.031Z,29.99
2022-09-05T12:32:36.563Z,29.75
2022-09-05T12:35:55.655Z,29.56
2022-09-05T12:36:10.819Z,29.17
2022-09-05T12:40:44.988Z,29.36
2022-09-05T12:40:46.108Z,28.95
2022-09-05T12:41:32.478Z,29.41
2022-09-05T12:41:46.220Z,29.41
2022-09-05T12:42:48.302Z,29.70
2022-09-05T12:44:38.062Z,29.87
2022-09-05T12:45:37.821Z,30.11
2022-09-05T12:46:54.776Z,29.89
2022-09-05T12:48:22.524Z,29.62
2022-09-05T12:50:15.580Z,29.70
2022-09-05T12:51:47.009Z,30.05
2022-09-05T12:52:51.511Z,30.39
2022-09-05T12:54:00.402Z,30.36
2022-09-05T12:55:10.971Z,30.37
2022-09-05T12:58:34.655Z,30.20
2022-09-05T13:01:46.269Z,30.52
2022-09-05T13:03:01.752Z,30.52
2022-09-05T13:03:03.726Z,30.68
2022-09-05T13:03:13.003Z,30.04
2022-09-05T13:04:20.198Z,30.02
2022-09-05T13:05:42.948Z,30.04
2022-09-05T13:06:53.367Z,30.14
2022-09-05T13:07:58.193Z,30.32
2022-09-05T13:09:13.802Z,29.95
2022-09-05T13:13:55.019Z,29.78
2022-09-05T13:14:47.653Z,29.95
2022-09-05T13:14:55.294Z,30.33
2022-09-05T13:15:26.978Z,30.41
2022-09-05T13:16:32.070Z,30.43
2022-09-05T13:17:51.380Z,30.54
2022-09-05T13:19:02.235Z,30.61
2022-09-05T13:20:34.132Z,30.46
2022-09-05T13:21:45.419Z,30.15
2022-09-05T13:22:50.454Z,30.21
2022-09-05T13:24:12.441Z,30.52
2022-09-05T13:25:20.065Z,30.58
2022-09-05T13:26:55.416Z,30.82
2022-09-05T13:28:07.104Z,30.05
2022-09-05T13:29:13.457Z,30.36
2022-09-05T13:34:22.008Z,30.11
2022-09-05T13:37:55.227Z,30.63
2022-09-05T13:38:11.971Z,30.45
2022-09-05T13:38:16.163Z,30.87
2022-09-05T13:38:17.485Z,30.89
2022-09-05T13:38:19.483Z,30.64
2022-09-05T13:39:06.571Z,30.90
2022-09-05T13:40:16.569Z,31.08
2022-09-05T13:41:28.331Z,31.00
2022-09-05T13:42:35.247Z,30.74
2022-09-05T13:43:39.471Z,30.74
2022-09-05T13:44:46.657Z,31.02
2022-09-05T13:46:07.804Z,31.06
2022-09-05T13:47:41.298Z,30.94
2022-09-05T13:50:32.192Z,29.94
2022-09-05T13:51:39.300Z,29.87
2022-09-05T13:52:55.071Z,30.36
2022-09-05T13:54:26.671Z,30.37
2022-09-05T13:55:46.282Z,30.69
2022-09-05T13:57:18.607Z,30.63
2022-09-05T13:58:56.381Z,30.75
2022-09-05T14:00:27.552Z,30.77
2022-09-05T14:01:33.257Z,30.76
2022-09-05T14:03:30.170Z,30.89
2022-09-05T14:03:58.149Z,30.85
2022-09-05T14:05:31.867Z,30.85
2022-09-05T14:09:35.137Z,30.62
2022-09-05T14:10:35.604Z,30.99
2022-09-05T14:11:49.273Z,31.03
2022-09-05T14:13:02.745Z,31.04
2022-09-05T14:14:16.789Z,31.20
2022-09-05T14:15:36.015Z,30.77
2022-09-05T14:16:52.311Z,30.77
2022-09-05T14:18:20.582Z,31.10
2022-09-05T14:21:16.306Z,30.84
2022-09-05T14:22:44.127Z,30.50
2022-09-05T14:24:00.681Z,30.43
2022-09-05T14:25:14.078Z,30.72
2022-09-05T14:27:06.167Z,30.92
2022-09-05T14:28:17.892Z,31.05
2022-09-05T14:29:26.652Z,30.92
2022-09-05T14:33:21.172Z,30.87
2022-09-05T14:37:35.182Z,30.89
2022-09-05T14:37:49.007Z,31.16
2022-09-05T14:37:52.815Z,31.27
2022-09-05T14:38:00.489Z,31.26
2022-09-05T14:38:52.621Z,31.38
2022-09-05T14:40:29.161Z,31.01
2022-09-05T14:42:03.587Z,31.03
2022-09-05T14:43:47.586Z,31.50
2022-09-05T14:44:59.354Z,31.57
2022-09-05T14:46:24.028Z,31.25
2022-09-05T14:47:47.432Z,31.52
2022-09-05T14:48:56.843Z,31.06
2022-09-05T14:50:28.061Z,31.04
2022-09-05T14:51:43.131Z,31.12
2022-09-05T14:57:18.960Z,30.83
2022-09-05T15:02:42.334Z,30.87
2022-09-05T15:02:43.898Z,31.29
2022-09-05T15:02:53.849Z,30.67
2022-09-05T15:02:56.626Z,30.32
2022-09-05T15:05:13.901Z,31.10
2022-09-05T15:06:21.904Z,31.09
2022-09-05T15:07:42.013Z,31.47
2022-09-05T15:11:45.650Z,31.17
2022-09-05T15:12:14.138Z,31.49
2022-09-05T15:12:22.947Z,31.40
2022-09-05T15:13:10.303Z,31.48
2022-09-05T15:14:13.362Z,31.64
2022-09-05T15:15:39.170Z,31.71
2022-09-05T15:16:58.066Z,31.55
2022-09-05T15:18:09.158Z,31.43
2022-09-05T15:19:32.743Z,31.55
2022-09-05T15:20:47.027Z,30.91
2022-09-05T15:21:49.511Z,31.06
2022-09-05T15:22:57.405Z,31.10
2022-09-05T15:24:03.149Z,31.01
2022-09-05T15:25:19.089Z,30.67
2022-09-05T15:26:26.590Z,30.80
2022-09-05T15:27:30.553Z,30.25
2022-09-05T15:28:37.855Z,30.23
2022-09-05T15:29:41.752Z,30.43
2022-09-05T15:31:00.019Z,30.84
2022-09-05T15:32:21.606Z,30.75
2022-09-05T15:33:29.879Z,30.98
2022-09-05T15:34:33.282Z,31.22
2022-09-05T15:35:39.477Z,31.44
2022-09-05T15:36:41.784Z,31.61
2022-09-05T15:37:45.054Z,31.63
2022-09-05T15:38:55.957Z,31.74
2022-09-05T15:40:21.909Z,31.67
2022-09-05T15:41:29.110Z,31.81
2022-09-05T15:42:34.531Z,31.86
2022-09-05T15:44:09.847Z,31.70
2022-09-05T15:45:17.893Z,31.29
2022-09-05T15:46:49.654Z,31.41
2022-09-05T15:48:15.634Z,31.55
2022-09-05T15:49:28.511Z,31.51
2022-09-05T15:50:43.241Z,31.65
2022-09-05T15:51:53.955Z,31.45
2022-09-05T15:52:56.886Z,31.32
2022-09-05T15:54:01.280Z,31.41
2022-09-05T15:55:13.781Z,31.21
2022-09-05T15:56:20.960Z,31.41
2022-09-05T15:57:37.031Z,31.44
2022-09-05T15:58:54.031Z,31.48
2022-09-05T16:00:01.130Z,31.40
2022-09-05T16:01:30.491Z,31.51
2022-09-05T16:02:44.933Z,31.44
2022-09-05T16:10:30.389Z,31.11
2022-09-05T16:10:31.606Z,31.19
2022-09-05T16:10:42.751Z,30.52
2022-09-05T16:10:44.906Z,30.37
2022-09-05T16:10:50.977Z,30.50
2022-09-05T16:12:51.551Z,30.42
2022-09-05T16:14:12.882Z,30.41
2022-09-05T16:19:40.963Z,30.45
2022-09-05T16:23:12.829Z,29.64
2022-09-05T16:23:19.843Z,29.23
2022-09-05T16:23:30.262Z,28.84
2022-09-05T16:23:34.266Z,29.10
2022-09-05T16:23:37.743Z,29.04
2022-09-05T16:24:41.566Z,29.13
2022-09-05T16:26:04.852Z,28.88
2022-09-05T16:27:08.205Z,28.73
2022-09-05T16:28:24.109Z,28.51
2022-09-05T16:29:30.055Z,28.51
2022-09-05T16:30:35.406Z,28.38
2022-09-05T16:31:45.691Z,28.04
2022-09-05T16:32:51.141Z,27.98
2022-09-05T16:33:54.550Z,28.12
2022-09-05T16:35:03.346Z,28.12
2022-09-05T16:36:22.764Z,28.15
2022-09-05T16:37:48.439Z,28.19
2022-09-05T16:39:01.347Z,28.15
2022-09-05T16:40:14.708Z,28.02
2022-09-05T16:41:55.521Z,27.96
2022-09-05T16:43:21.094Z,27.96
2022-09-05T16:44:35.697Z,27.94
2022-09-05T16:45:49.408Z,27.88
2022-09-05T16:47:31.697Z,27.81
2022-09-05T16:48:55.547Z,27.75
2022-09-05T16:50:06.831Z,27.73
2022-09-05T16:51:35.355Z,27.61
2022-09-05T16:52:53.280Z,27.53
2022-09-05T16:54:04.710Z,27.41
2022-09-05T16:55:29.319Z,27.37
2022-09-05T16:56:51.120Z,27.27
2022-09-05T16:58:08.899Z,27.18
2022-09-05T16:59:21.256Z,27.01
2022-09-05T17:00:23.818Z,26.90
2022-09-05T17:01:47.650Z,26.77
2022-09-05T17:03:04.917Z,26.68
2022-09-05T17:04:22.506Z,26.52
2022-09-05T17:05:41.407Z,26.38
2022-09-05T17:06:58.891Z,26.28
2022-09-05T17:08:01.729Z,26.23
2022-09-05T17:09:18.349Z,26.16
2022-09-05T17:10:28.906Z,25.98
2022-09-05T17:12:00.247Z,25.92
2022-09-05T17:13:03.574Z,25.88
2022-09-05T17:14:12.179Z,25.84
2022-09-05T17:15:19.333Z,25.81
2022-09-05T17:16:41.715Z,25.79
2022-09-05T17:18:21.816Z,25.74
2022-09-05T17:19:12.068Z,25.70
2022-09-05T17:20:17.583Z,25.63
2022-09-05T17:21:30.010Z,25.63
2022-09-05T17:27:22.919Z,25.49
2022-09-05T17:29:16.161Z,25.38
2022-09-05T17:29:26.223Z,25.16
2022-09-05T17:29:36.098Z,25.32
2022-09-05T17:29:49.646Z,25.17
2022-09-05T17:32:10.952Z,24.99
2022-09-05T17:33:30.166Z,25.01
2022-09-05T17:34:50.472Z,24.89
2022-09-05T17:36:13.075Z,24.84
2022-09-05T17:37:21.101Z,24.76
2022-09-05T17:38:42.281Z,24.71
2022-09-05T17:40:19.959Z,24.58
2022-09-05T17:41:35.139Z,24.60
2022-09-05T17:43:04.630Z,24.54
2022-09-05T17:44:24.491Z,24.47
2022-09-05T17:45:57.742Z,24.40
2022-09-05T17:47:15.152Z,24.43
2022-09-05T17:48:50.833Z,24.37
2022-09-05T17:50:10.971Z,24.26
2022-09-05T17:51:28.364Z,24.23
2022-09-05T17:52:31.303Z,24.16
2022-09-05T17:54:00.027Z,24.08
2022-09-05T17:55:12.914Z,23.96
2022-09-05T17:56:35.954Z,23.85
2022-09-05T17:57:42.286Z,23.83
2022-09-05T17:59:13.969Z,23.77
2022-09-05T18:00:45.437Z,23.71
2022-09-05T18:02:05.945Z,23.58
2022-09-05T18:03:08.458Z,23.55
2022-09-05T18:04:17.601Z,23.53
2022-09-05T18:06:03.912Z,23.46
2022-09-05T18:07:25.465Z,23.40
2022-09-05T18:09:09.003Z,23.29
2022-09-05T18:10:15.605Z,23.26
2022-09-05T18:11:29.791Z,23.31
2022-09-05T18:14:10.253Z,23.20
2022-09-05T18:15:31.758Z,22.85
2022-09-05T18:17:35.280Z,22.77
2022-09-05T18:18:29.936Z,22.81
2022-09-05T18:19:57.831Z,22.80
2022-09-05T18:22:35.576Z,22.83
2022-09-05T18:23:46.635Z,22.84
2022-09-05T18:25:16.585Z,22.81
2022-09-05T18:26:28.419Z,22.84
2022-09-05T18:28:04.910Z,22.86
2022-09-05T18:29:28.728Z,22.80
2022-09-05T18:30:49.783Z,22.81
2022-09-05T18:31:53.250Z,22.83
2022-09-05T18:33:55.783Z,22.79
2022-09-05T18:34:19.007Z,22.73
2022-09-05T18:35:36.837Z,22.75
2022-09-05T18:36:41.337Z,22.71